Nearby METAR Reports

 

KALB - Albany, New York, USA
Distance from station: E 47mi, 75km
Updated: Sun, 22-Oct-2017 12:51pm EDT
Mostly cloudy
Mostly cloudy
 Wind from S
Wind: S 9 mph , 15 km/h
Temperature: 66°F , 19°C
Dew Point: 45°F , 7°C
Humidity: 46%
Barometer: 30.36 inHg , 1028.1 hPa
Clouds: Mostly cloudy
Visibility: 10 miles , 16 km
Cloud details: Few Clouds 20000 ft
Mostly cloudy 25000 ft
2017/10/22 16:51 KALB 221651Z 18008KT 10SM FEW200 BKN250 19/07 A3036 RMK AO2 SLP280 T01940067
KSLK - Saranac Lake, New York, USA
Distance from station: N 110mi, 177km
Updated: Sun, 22-Oct-2017 12:51pm EDT
Clear
Clear
 Wind from SSW
Wind: SSW 10 mph , 17 km/h
Temperature: 73°F , 23°C
Dew Point: 39°F , 4°C
Humidity: 29%
Barometer: 30.31 inHg , 1026.4 hPa
Clouds: Clear
Visibility: 10 miles , 16 km
2017/10/22 16:51 KSLK 221651Z AUTO 21009KT 10SM CLR 23/04 A3031 RMK AO2 SLP265 T02330044
 
KSYR - Syracuse, New York, USA
Distance from station: W 73mi, 117km
Updated: Sun, 22-Oct-2017 12:54pm EDT
Mostly cloudy
Mostly cloudy
 Wind from SSE
Wind: SSE 8 mph , 13 km/h
Temperature: 73°F , 23°C
Dew Point: 52°F , 11°C
Humidity: 47%
Barometer: 30.27 inHg , 1025.1 hPa
Clouds: Mostly cloudy
Visibility: 10 miles , 16 km
Cloud details: Few Clouds 16000 ft
Mostly cloudy 24000 ft
2017/10/22 16:54 KSYR 221654Z 16007KT 10SM FEW160 BKN240 23/11 A3027 RMK AO2 SLP249 T02330106
KBGM - Binghamton, New York, USA
Distance from station: SW 78mi, 126km
Updated: Sun, 22-Oct-2017 12:53pm EDT
Clear
Clear
 Wind from SSW
Wind: SSW 8 mph , 13 km/h
Temperature: 68°F , 20°C
Dew Point: 46°F , 8°C
Humidity: 46%
Barometer: 30.34 inHg , 1027.4 hPa
Clouds: Clear
Visibility: 10 miles , 16 km
2017/10/22 16:53 KBGM 221653Z 21007KT 10SM CLR 20/08 A3034 RMK AO2 SLP271 T02000083
 
KRME - Rome, New York, USA
Distance from station: WNW 43mi, 69km
Updated: Sun, 22-Oct-2017 12:53pm EDT
Clear
Clear
 Wind from ESE
Wind: ESE 9 mph , 15 km/h
Temperature: 73°F , 23°C
Dew Point: 46°F , 8°C
Humidity: 38%
Barometer: 30.31 inHg , 1026.4 hPa
Clouds: Clear
Visibility: 10 miles , 16 km
2017/10/22 16:53 KRME 221653Z 12008KT 10SM CLR 23/08 A3031 RMK AO2 SLP262 T02280083
KJFK - New York, New York, USA
Distance from station: SSE 159mi, 256km
Updated: Sun, 22-Oct-2017 12:51pm EDT
Mostly cloudy
Mostly cloudy
 Wind from SSE
Wind: SSE 8 mph , 13 km/h
Temperature: 72°F , 22°C
Dew Point: 54°F , 12°C
Humidity: 53%
Barometer: 30.42 inHg , 1030.1 hPa
Clouds: Mostly cloudy
Visibility: 10 miles , 16 km
Cloud details: Few Clouds 20000 ft
Mostly cloudy 25000 ft
2017/10/22 16:51 KJFK 221651Z 16007KT 10SM FEW200 BKN250 22/12 A3042 RMK AO2 SLP299 T02170117
 
KROC - Rochester, New York, USA
Distance from station: W 150mi, 242km
Updated: Sun, 22-Oct-2017 12:54pm EDT
Mostly cloudy
Mostly cloudy
 Wind from SSW
Wind: SSW 6 mph , 9 km/h
Temperature: 72°F , 22°C
Dew Point: 52°F , 11°C
Humidity: 50%
Barometer: 30.26 inHg , 1024.7 hPa
Clouds: Mostly cloudy
Visibility: 10 miles , 16 km
Cloud details: Few Clouds 17000 ft
Mostly cloudy 21000 ft
Mostly cloudy 27000 ft
2017/10/22 16:54 KROC 221654Z 21005KT 10SM FEW170 BKN210 BKN270 22/11 A3026 RMK AO2 SLP251 T02220111
KART - Watertown, New York, USA
Distance from station: NNW 103mi, 166km
Updated: Sun, 22-Oct-2017 12:56pm EDT
Clear
Clear
 Wind from WSW
Wind: WSW 7 mph , 11 km/h
Temperature: 72°F , 22°C
Dew Point: 48°F , 9°C
Humidity: 44%
Barometer: 30.28 inHg , 1025.4 hPa
Clouds: Clear
Visibility: 10 miles , 16 km
2017/10/22 16:56 KART 221656Z AUTO 25006KT 10SM CLR 22/09 A3028 RMK AO2 SLP253 T02220094 $
 
KELM - Elmira-Corning, New York, USA
Distance from station: SSW 121mi, 195km
Updated: Sun, 22-Oct-2017 12:53pm EDT
Clear
Clear
 Wind from calm
Wind: Calm
Temperature: 72°F , 22°C
Dew Point: 52°F , 11°C
Humidity: 50%
Barometer: 30.30 inHg , 1026.1 hPa
Clouds: Clear
Visibility: 10 miles , 16 km
2017/10/22 16:53 KELM 221653Z 00000KT 10SM CLR 22/11 A3030 RMK AO2 SLP261 T02220111
KJHW - Jamestown, New York, USA
Distance from station: SW 238mi, 383km
Updated: Sun, 22-Oct-2017 12:56pm EDT
Clear
Clear
 Wind from S
Wind: S 10 mph , 17 km/h
Temperature: 70°F , 21°C
Dew Point: 52°F , 11°C
Humidity: 53%
Barometer: 30.29 inHg , 1025.7 hPa
Clouds: Clear
Visibility: 10 miles , 16 km
2017/10/22 16:56 KJHW 221656Z AUTO 18009KT 10SM CLR 21/11 A3029 RMK AO2 SLP256 T02060106
 
KMSS - Massena, New York, USA
Distance from station: N 141mi, 232km
Updated: Sun, 22-Oct-2017 12:53pm EDT
Clear
Clear
 Wind from calm
Wind: Calm
Temperature: 73°F , 23°C
Dew Point: 46°F , 8°C
Humidity: 38%
Barometer: 30.29 inHg , 1025.7 hPa
Clouds: Clear
Visibility: 10 miles , 16 km
2017/10/22 16:53 KMSS 221653Z AUTO 00000KT 10SM CLR 23/08 A3029 RMK AO2 SLP257 T02280083
KBUF - Buffalo, New York, USA
Distance from station: W 204mi, 328km
Updated: Sun, 22-Oct-2017 12:54pm EDT
Mostly cloudy
Mostly cloudy
 Wind from varies
Wind: varies 5 mph , 7 km/h
Temperature: 73°F , 23°C
Dew Point: 50°F , 10°C
Humidity: 44%
Barometer: 30.24 inHg , 1024 hPa
Clouds: Mostly cloudy
Visibility: 10 miles , 16 km
Cloud details: Partly cloudy 18000 ft
Mostly cloudy 23000 ft
Mostly cloudy 29000 ft
2017/10/22 16:54 KBUF 221654Z VRB04KT 10SM SCT180 BKN230 BKN290 23/10 A3024 RMK AO2 SLP238 T02330100